createdAt,value
2023-03-10T00:01:09.000Z,100
2023-03-10T00:02:25.000Z,100
2023-03-10T00:03:41.000Z,100
2023-03-10T00:04:57.000Z,100
2023-03-10T00:06:14.000Z,100
2023-03-10T00:07:30.000Z,100
2023-03-10T00:08:46.000Z,100
2023-03-10T00:10:01.000Z,100
2023-03-10T00:11:17.000Z,100
2023-03-10T00:12:34.000Z,100
2023-03-10T00:13:50.000Z,100
2023-03-10T00:15:06.000Z,100
2023-03-10T00:16:22.000Z,100
2023-03-10T00:17:38.000Z,100
2023-03-10T00:18:55.000Z,100
2023-03-10T00:20:11.000Z,100
2023-03-10T00:21:27.000Z,100
2023-03-10T00:22:43.000Z,100
2023-03-10T00:23:59.000Z,100
2023-03-10T00:25:16.000Z,100
2023-03-10T00:26:31.295Z,100
2023-03-10T00:27:47.000Z,100
2023-03-10T00:29:03.000Z,100
2023-03-10T00:30:19.000Z,100
2023-03-10T00:31:36.000Z,100
2023-03-10T00:32:52.000Z,100
2023-03-10T00:34:08.000Z,100
2023-03-10T00:35:24.000Z,100
2023-03-10T00:36:40.000Z,100
2023-03-10T00:37:57.000Z,100
2023-03-10T00:39:13.000Z,100
2023-03-10T00:40:29.000Z,100
2023-03-10T00:41:45.000Z,100
2023-03-10T00:43:00.000Z,100
2023-03-10T00:44:17.000Z,100
2023-03-10T00:45:33.000Z,100
2023-03-10T00:46:49.000Z,100
2023-03-10T00:48:05.000Z,100
2023-03-10T00:49:21.000Z,100
2023-03-10T00:50:38.000Z,100
2023-03-10T00:51:54.000Z,100
2023-03-10T00:53:10.000Z,100
2023-03-10T00:54:26.000Z,100
2023-03-10T00:55:42.000Z,100
2023-03-10T00:56:59.000Z,100
2023-03-10T00:58:15.000Z,100
2023-03-10T00:59:30.000Z,100
2023-03-10T01:00:46.000Z,100
2023-03-10T01:02:02.000Z,100
2023-03-10T01:03:19.000Z,100
2023-03-10T01:04:35.186Z,100
2023-03-10T01:05:51.000Z,100
2023-03-10T01:07:07.000Z,100
2023-03-10T01:08:23.769Z,100
2023-03-10T01:09:40.000Z,100
2023-03-10T01:10:56.000Z,100
2023-03-10T01:12:12.000Z,100
2023-03-10T01:13:28.000Z,100
2023-03-10T01:14:44.000Z,100
2023-03-10T01:16:00.000Z,100
2023-03-10T01:17:16.163Z,100
2023-03-10T01:18:32.000Z,100
2023-03-10T01:19:48.000Z,100
2023-03-10T01:21:04.000Z,100
2023-03-10T01:22:20.940Z,100
2023-03-10T01:23:37.000Z,100
2023-03-10T01:24:53.000Z,100
2023-03-10T01:26:09.532Z,100
2023-03-10T01:27:25.000Z,100
2023-03-10T01:28:41.000Z,100
2023-03-10T01:29:58.000Z,100
2023-03-10T01:31:14.000Z,100
2023-03-10T01:32:29.000Z,100
2023-03-10T01:33:45.000Z,100
2023-03-10T01:35:01.000Z,100
2023-03-10T01:36:18.000Z,100
2023-03-10T01:37:34.000Z,100
2023-03-10T01:38:50.000Z,100
2023-03-10T01:40:06.000Z,100
2023-03-10T01:41:22.904Z,100
2023-03-10T01:42:39.000Z,100
2023-03-10T01:43:55.000Z,100
2023-03-10T01:45:11.000Z,100
2023-03-10T01:46:27.000Z,100
2023-03-10T01:47:43.000Z,100
2023-03-10T01:48:59.000Z,100
2023-03-10T01:50:15.000Z,100
2023-03-10T01:51:31.000Z,100
2023-03-10T01:52:47.000Z,100
2023-03-10T01:54:03.879Z,100
2023-03-10T01:55:20.078Z,100
2023-03-10T01:56:36.000Z,100
2023-03-10T01:57:52.000Z,100
2023-03-10T01:59:08.000Z,100
2023-03-10T02:00:24.000Z,100
2023-03-10T02:01:41.000Z,100
2023-03-10T02:02:57.000Z,100
2023-03-10T02:04:13.000Z,100
2023-03-10T02:05:28.000Z,100
2023-03-10T02:06:44.000Z,100
2023-03-10T02:08:01.000Z,100
2023-03-10T02:09:17.000Z,100
2023-03-10T02:10:33.000Z,100
2023-03-10T02:11:49.000Z,100
2023-03-10T02:13:05.000Z,100
2023-03-10T02:14:22.000Z,100
2023-03-10T02:15:38.000Z,100
2023-03-10T02:16:54.000Z,100
2023-03-10T02:18:10.000Z,100
2023-03-10T02:19:26.000Z,100
2023-03-10T02:20:43.000Z,100
2023-03-10T02:21:58.000Z,100
2023-03-10T02:23:14.000Z,100
2023-03-10T02:24:30.000Z,100
2023-03-10T02:25:46.000Z,100
2023-03-10T02:27:03.000Z,100
2023-03-10T02:28:19.000Z,100
2023-03-10T02:29:34.422Z,100
2023-03-10T02:30:50.000Z,100
2023-03-10T02:32:06.000Z,100
2023-03-10T02:33:23.000Z,100
2023-03-10T02:34:39.000Z,100
2023-03-10T02:35:55.000Z,100
2023-03-10T02:37:11.000Z,100
2023-03-10T02:38:27.000Z,100
2023-03-10T02:39:44.000Z,100
2023-03-10T02:41:00.000Z,100
2023-03-10T02:42:16.000Z,100
2023-03-10T02:43:32.000Z,100
2023-03-10T02:44:48.000Z,100
2023-03-10T02:46:04.000Z,100
2023-03-10T02:47:20.000Z,100
2023-03-10T02:48:36.361Z,100
2023-03-10T02:49:52.000Z,100
2023-03-10T02:51:08.000Z,99.9
2023-03-10T02:52:25.000Z,99.6
2023-03-10T02:53:41.000Z,99.7
2023-03-10T02:54:57.000Z,99.6
2023-03-10T02:56:13.000Z,99.6
2023-03-10T02:57:29.000Z,99.6
2023-03-10T02:58:45.000Z,99.5
2023-03-10T03:00:02.000Z,99.5
2023-03-10T03:01:18.000Z,99.4
2023-03-10T03:02:33.547Z,99.3
2023-03-10T03:03:49.000Z,99.2
2023-03-10T03:05:05.000Z,99
2023-03-10T03:06:22.000Z,99
2023-03-10T03:07:38.000Z,98.8
2023-03-10T03:08:54.000Z,98.7
2023-03-10T03:10:10.000Z,98.5
2023-03-10T03:11:26.911Z,98.2
2023-03-10T03:12:43.000Z,97.9
2023-03-10T03:13:59.000Z,97.9
2023-03-10T03:15:15.000Z,97.9
2023-03-10T03:16:31.000Z,97.9
2023-03-10T03:17:47.000Z,98
2023-03-10T03:19:03.000Z,98
2023-03-10T03:20:19.000Z,98
2023-03-10T03:21:35.000Z,97.9
2023-03-10T03:22:51.000Z,97.9
2023-03-10T03:24:07.000Z,97.9
2023-03-10T03:25:24.000Z,97.8
2023-03-10T03:26:40.000Z,97.7
2023-03-10T03:27:56.000Z,97.6
2023-03-10T03:29:12.000Z,97.4
2023-03-10T03:30:28.000Z,97.4
2023-03-10T03:31:45.000Z,97.3
2023-03-10T03:33:01.000Z,97.2
2023-03-10T03:34:17.000Z,97.2
2023-03-10T03:35:32.000Z,97.1
2023-03-10T03:36:48.000Z,97
2023-03-10T03:38:05.000Z,97
2023-03-10T03:39:21.000Z,97
2023-03-10T03:40:37.000Z,97
2023-03-10T03:41:53.000Z,96.8
2023-03-10T03:43:09.000Z,96.7
2023-03-10T03:44:26.000Z,96.7
2023-03-10T03:45:42.000Z,96.7
2023-03-10T03:46:58.000Z,96.7
2023-03-10T03:48:14.000Z,96.7
2023-03-10T03:49:30.000Z,96.8
2023-03-10T03:50:47.000Z,96.8
2023-03-10T03:52:02.000Z,96.8
2023-03-10T03:53:18.000Z,96.8
2023-03-10T03:54:34.000Z,96.8
2023-03-10T03:55:50.000Z,96.8
2023-03-10T03:57:07.000Z,96.8
2023-03-10T03:58:23.000Z,96.8
2023-03-10T03:59:39.326Z,96.7
2023-03-10T04:00:55.000Z,96.6
2023-03-10T04:02:11.724Z,96.5
2023-03-10T04:03:27.000Z,96.5
2023-03-10T04:04:44.000Z,96.4
2023-03-10T04:06:00.000Z,96.4
2023-03-10T04:07:16.000Z,96.5
2023-03-10T04:08:31.000Z,96.5
2023-03-10T04:09:47.000Z,96.5
2023-03-10T04:11:04.000Z,96.6
2023-03-10T04:12:20.000Z,96.6
2023-03-10T04:13:36.483Z,96.6
2023-03-10T04:14:52.683Z,96.5
2023-03-10T04:16:08.000Z,96.5
2023-03-10T04:17:25.000Z,96.4
2023-03-10T04:18:41.000Z,96.4
2023-03-10T04:19:57.000Z,96.4
2023-03-10T04:21:13.000Z,96.4
2023-03-10T04:22:29.000Z,96.4
2023-03-10T04:23:46.000Z,96.4
2023-03-10T04:25:01.000Z,96.5
2023-03-10T04:26:17.000Z,96.5
2023-03-10T04:27:33.000Z,96.5
2023-03-10T04:28:49.000Z,96.5
2023-03-10T04:30:06.000Z,96.5
2023-03-10T04:31:22.000Z,96.6
2023-03-10T04:32:38.000Z,96.6
2023-03-10T04:33:54.000Z,96.6
2023-03-10T04:35:10.000Z,96.6
2023-03-10T04:36:27.000Z,96.6
2023-03-10T04:37:43.000Z,96.7
2023-03-10T04:38:59.369Z,96.7
2023-03-10T04:40:15.562Z,96.7
2023-03-10T04:41:30.000Z,96.7
2023-03-10T04:42:47.000Z,96.8
2023-03-10T04:44:03.000Z,96.8
2023-03-10T04:45:19.000Z,96.9
2023-03-10T04:46:35.543Z,97
2023-03-10T04:47:51.000Z,97
2023-03-10T04:49:07.928Z,97.1
2023-03-10T04:50:24.000Z,97.1
2023-03-10T04:51:40.000Z,97
2023-03-10T04:52:56.000Z,97
2023-03-10T04:54:12.703Z,97
2023-03-10T04:55:28.000Z,97
2023-03-10T04:56:45.000Z,96.9
2023-03-10T04:58:00.000Z,96.9
2023-03-10T04:59:16.000Z,96.8
2023-03-10T05:00:32.000Z,96.4
2023-03-10T05:01:48.000Z,96.5
2023-03-10T05:03:05.000Z,96.5
2023-03-10T05:04:21.000Z,96.6
2023-03-10T05:05:37.000Z,96.8
2023-03-10T05:06:53.000Z,96.8
2023-03-10T05:08:09.000Z,96.9
2023-03-10T05:09:26.000Z,96.9
2023-03-10T05:10:42.000Z,96.9
2023-03-10T05:11:58.000Z,96.9
2023-03-10T05:13:14.000Z,96.9
2023-03-10T05:14:29.000Z,96.9
2023-03-10T05:15:46.000Z,96.9
2023-03-10T05:17:02.000Z,96.8
2023-03-10T05:18:18.427Z,96.6
2023-03-10T05:19:34.626Z,96.4
2023-03-10T05:20:50.000Z,96.3
2023-03-10T05:22:07.000Z,96.2
2023-03-10T05:23:23.000Z,96
2023-03-10T05:24:39.000Z,95.9
2023-03-10T05:25:55.000Z,95.8
2023-03-10T05:27:11.000Z,95.8
2023-03-10T05:28:28.000Z,96
2023-03-10T05:29:44.165Z,96
2023-03-10T05:30:59.373Z,96.1
2023-03-10T05:32:15.565Z,96.2
2023-03-10T05:33:31.000Z,96.3
2023-03-10T05:34:48.000Z,96.2
2023-03-10T05:36:04.000Z,96.3
2023-03-10T05:37:20.000Z,96.3
2023-03-10T05:38:36.000Z,96.1
2023-03-10T05:39:52.000Z,96
2023-03-10T05:41:08.000Z,95.9
2023-03-10T05:42:25.000Z,95.8
2023-03-10T05:43:41.000Z,95.9
2023-03-10T05:44:57.000Z,96.1
2023-03-10T05:46:13.000Z,96.2
2023-03-10T05:47:28.000Z,96.3
2023-03-10T05:48:45.000Z,96.3
2023-03-10T05:50:01.000Z,96.3
2023-03-10T05:51:17.000Z,96.4
2023-03-10T05:52:33.000Z,96.6
2023-03-10T05:53:49.000Z,96.7
2023-03-10T05:55:06.000Z,96.6
2023-03-10T05:56:22.000Z,96.6
2023-03-10T05:57:38.000Z,96.8
2023-03-10T05:58:54.000Z,96.8
2023-03-10T06:00:10.000Z,96.9
2023-03-10T06:01:27.000Z,97
2023-03-10T06:02:43.000Z,97.1
2023-03-10T06:03:58.000Z,97
2023-03-10T06:05:14.000Z,97
2023-03-10T06:06:30.000Z,97
2023-03-10T06:07:47.000Z,96.8
2023-03-10T06:09:03.223Z,96.7
2023-03-10T06:10:19.000Z,96.6
2023-03-10T06:11:35.000Z,96.5
2023-03-10T06:12:51.000Z,96.6
2023-03-10T06:14:08.066Z,96.6
2023-03-10T06:15:24.000Z,96.7
2023-03-10T06:16:40.000Z,96.9
2023-03-10T06:17:56.000Z,96.9
2023-03-10T06:19:12.000Z,96.9
2023-03-10T06:20:28.000Z,97
2023-03-10T06:21:44.000Z,97.1
2023-03-10T06:23:00.000Z,97.2
2023-03-10T06:24:16.000Z,97.2
2023-03-10T06:25:32.000Z,97
2023-03-10T06:26:49.000Z,96.8
2023-03-10T06:28:05.000Z,96.9
2023-03-10T06:29:21.000Z,97
2023-03-10T06:30:37.000Z,97.1
2023-03-10T06:31:53.000Z,97
2023-03-10T06:33:09.000Z,97.2
2023-03-10T06:34:26.000Z,97.3
2023-03-10T06:35:42.000Z,97.5
2023-03-10T06:36:57.000Z,97.5
2023-03-10T06:38:13.000Z,97.5
2023-03-10T06:39:29.000Z,97.5
2023-03-10T06:40:46.000Z,97.8
2023-03-10T06:42:02.290Z,97.7
2023-03-10T06:43:18.000Z,97.8
2023-03-10T06:44:33.000Z,97.8
2023-03-10T06:45:49.000Z,97.8
2023-03-10T06:47:06.000Z,97.7
2023-03-10T06:48:22.000Z,97.5
2023-03-10T06:49:38.000Z,97.5
2023-03-10T06:50:54.000Z,97.5
2023-03-10T06:52:10.000Z,97.5
2023-03-10T06:53:27.000Z,97.7
2023-03-10T06:54:43.000Z,97.7
2023-03-10T06:55:59.000Z,97.8
2023-03-10T06:57:15.000Z,97.8
2023-03-10T06:58:31.000Z,97.8
2023-03-10T06:59:48.015Z,97.8
2023-03-10T07:01:03.000Z,97.8
2023-03-10T07:02:19.000Z,97.7
2023-03-10T07:03:35.616Z,97.5
2023-03-10T07:04:51.000Z,97.5
2023-03-10T07:06:08.000Z,97.5
2023-03-10T07:07:24.000Z,97.3
2023-03-10T07:08:40.000Z,97.3
2023-03-10T07:09:56.000Z,97.1
2023-03-10T07:11:12.000Z,97.1
2023-03-10T07:12:29.000Z,97
2023-03-10T07:13:45.000Z,97
2023-03-10T07:15:01.000Z,97
2023-03-10T07:16:17.000Z,97.1
2023-03-10T07:17:32.000Z,97.2
2023-03-10T07:18:49.000Z,97.5
2023-03-10T07:20:05.000Z,97.5
2023-03-10T07:21:21.000Z,97.7
2023-03-10T07:22:37.000Z,97.8
2023-03-10T07:23:53.000Z,97.8
2023-03-10T07:25:09.000Z,97.7
2023-03-10T07:26:26.000Z,97.7
2023-03-10T07:27:42.000Z,97.7
2023-03-10T07:28:58.000Z,97.5
2023-03-10T07:30:14.000Z,97.7
2023-03-10T07:31:30.000Z,97.5
2023-03-10T07:32:47.000Z,97.5
2023-03-10T07:34:02.000Z,97.5
2023-03-10T07:35:18.000Z,97.5
2023-03-10T07:36:34.000Z,97.3
2023-03-10T07:37:50.869Z,97.2
2023-03-10T07:39:07.000Z,97
2023-03-10T07:40:23.000Z,96.9
2023-03-10T07:41:39.000Z,97
2023-03-10T07:42:55.000Z,97
2023-03-10T07:44:11.000Z,96.9
2023-03-10T07:45:28.000Z,96.8
2023-03-10T07:46:44.000Z,96.7
2023-03-10T07:48:00.000Z,96.6
2023-03-10T07:49:16.000Z,96.6
2023-03-10T07:50:31.000Z,96.6
2023-03-10T07:51:48.000Z,96.7
2023-03-10T07:53:04.000Z,96.7
2023-03-10T07:54:20.000Z,96.8
2023-03-10T07:55:36.000Z,96.7
2023-03-10T07:56:52.000Z,96.7
2023-03-10T07:58:09.000Z,96.8
2023-03-10T07:59:25.186Z,96.8
2023-03-10T08:00:41.000Z,96.8
2023-03-10T08:01:57.000Z,96.9
2023-03-10T08:03:13.000Z,96.6
2023-03-10T08:04:30.000Z,96.6
2023-03-10T08:05:46.000Z,96.7
2023-03-10T08:07:01.000Z,96.8
2023-03-10T08:08:17.000Z,96.8
2023-03-10T08:09:33.000Z,96.7
2023-03-10T08:10:49.937Z,96.7
2023-03-10T08:12:06.136Z,96.7
2023-03-10T08:13:22.000Z,96.8
2023-03-10T08:14:38.000Z,96.8
2023-03-10T08:15:54.718Z,97
2023-03-10T08:17:10.000Z,97.1
2023-03-10T08:18:27.000Z,97.3
2023-03-10T08:19:43.000Z,97.3
2023-03-10T08:20:59.000Z,97.5
2023-03-10T08:22:15.000Z,97.4
2023-03-10T08:23:30.000Z,97.5
2023-03-10T08:24:47.000Z,97.5
2023-03-10T08:26:03.000Z,97.5
2023-03-10T08:27:19.000Z,97.7
2023-03-10T08:28:35.000Z,97.7
2023-03-10T08:29:51.000Z,97.8
2023-03-10T08:31:08.000Z,97.8
2023-03-10T08:32:24.000Z,97.6
2023-03-10T08:33:40.000Z,97.5
2023-03-10T08:34:56.000Z,97.7
2023-03-10T08:36:12.836Z,97.8
2023-03-10T08:37:29.022Z,97.7
2023-03-10T08:38:45.000Z,97.5
2023-03-10T08:40:00.000Z,97.2
2023-03-10T08:41:16.000Z,97
2023-03-10T08:42:32.000Z,96.8
2023-03-10T08:43:49.000Z,96.6
2023-03-10T08:45:05.210Z,96.7
2023-03-10T08:46:21.000Z,97
2023-03-10T08:47:37.000Z,97
2023-03-10T08:48:53.000Z,97
2023-03-10T08:50:10.000Z,97
2023-03-10T08:51:26.162Z,96.9
2023-03-10T08:52:42.000Z,96.4
2023-03-10T08:53:58.560Z,96.3
2023-03-10T08:55:14.000Z,96.4
2023-03-10T08:56:30.000Z,96.7
2023-03-10T08:57:46.000Z,96.7
2023-03-10T08:59:02.000Z,96.7
2023-03-10T09:00:18.000Z,96.6
2023-03-10T09:01:34.000Z,96.8
2023-03-10T09:02:51.000Z,97
2023-03-10T09:04:07.000Z,97
2023-03-10T09:05:23.000Z,97
2023-03-10T09:06:39.000Z,97.2
2023-03-10T09:07:55.000Z,97.3
2023-03-10T09:09:11.000Z,97.3
2023-03-10T09:10:28.000Z,97.5
2023-03-10T09:11:44.000Z,97.5
2023-03-10T09:12:59.000Z,97.6
2023-03-10T09:14:15.000Z,97.7
2023-03-10T09:15:31.000Z,97.7
2023-03-10T09:16:48.000Z,97.7
2023-03-10T09:18:04.000Z,97.8
2023-03-10T09:19:20.000Z,97.9
2023-03-10T09:20:36.000Z,97.9
2023-03-10T09:21:52.000Z,98
2023-03-10T09:23:09.000Z,98.1
2023-03-10T09:24:25.000Z,98.2
2023-03-10T09:25:41.000Z,98.3
2023-03-10T09:26:57.000Z,98.2
2023-03-10T09:28:13.000Z,98.2
2023-03-10T09:29:29.000Z,98.2
2023-03-10T09:30:45.000Z,97.9
2023-03-10T09:32:01.409Z,97.7
2023-03-10T09:33:17.604Z,97.6
2023-03-10T09:34:33.000Z,97.5
2023-03-10T09:35:50.000Z,97.4
2023-03-10T09:37:06.000Z,97.2
2023-03-10T09:38:22.000Z,97.3
2023-03-10T09:39:38.000Z,97.4
2023-03-10T09:40:54.000Z,97.5
2023-03-10T09:42:11.000Z,97.5
2023-03-10T09:43:27.000Z,97.4
2023-03-10T09:44:43.000Z,97.2
2023-03-10T09:45:58.000Z,97.1
2023-03-10T09:47:14.000Z,97.1
2023-03-10T09:48:31.000Z,97
2023-03-10T09:49:47.000Z,97
2023-03-10T09:51:03.000Z,97
2023-03-10T09:52:19.000Z,96.8
2023-03-10T09:53:35.000Z,96.7
2023-03-10T09:54:52.000Z,96.8
2023-03-10T09:56:08.000Z,96.9
2023-03-10T09:57:24.000Z,96.9
2023-03-10T09:58:40.000Z,97.1
2023-03-10T09:59:56.704Z,97.1
2023-03-10T10:01:12.000Z,97.3
2023-03-10T10:02:28.105Z,97.3
2023-03-10T10:03:44.000Z,97.3
2023-03-10T10:05:00.000Z,97.2
2023-03-10T10:06:16.000Z,97.2
2023-03-10T10:07:32.000Z,97.1
2023-03-10T10:08:49.000Z,96.9
2023-03-10T10:10:05.264Z,96.9
2023-03-10T10:11:21.000Z,97
2023-03-10T10:12:37.000Z,97
2023-03-10T10:13:53.000Z,97
2023-03-10T10:15:10.000Z,97.1
2023-03-10T10:16:26.000Z,97.1
2023-03-10T10:17:42.000Z,97.1
2023-03-10T10:18:57.000Z,97.2
2023-03-10T10:20:13.000Z,97.4
2023-03-10T10:21:30.000Z,97.5
2023-03-10T10:22:46.215Z,97.6
2023-03-10T10:24:02.000Z,97.7
2023-03-10T10:25:18.000Z,97.7
2023-03-10T10:26:34.000Z,97.7
2023-03-10T10:27:51.000Z,97.6
2023-03-10T10:29:07.000Z,97.5
2023-03-10T10:30:23.000Z,97.3
2023-03-10T10:31:39.000Z,97.3
2023-03-10T10:32:55.000Z,97.4
2023-03-10T10:34:12.000Z,97.5
2023-03-10T10:35:27.000Z,97.6
2023-03-10T10:36:43.000Z,97.5
2023-03-10T10:37:59.000Z,97.4
2023-03-10T10:39:15.000Z,97.2
2023-03-10T10:40:32.000Z,97
2023-03-10T10:41:48.000Z,97.2
2023-03-10T10:43:04.000Z,97.3
2023-03-10T10:44:20.000Z,97.2
2023-03-10T10:45:36.000Z,97.3
2023-03-10T10:46:53.000Z,97.5
2023-03-10T10:48:09.000Z,97.4
2023-03-10T10:49:25.000Z,97.4
2023-03-10T10:50:41.000Z,97.3
2023-03-10T10:51:56.000Z,97.3
2023-03-10T10:53:12.000Z,97.2
2023-03-10T10:54:29.000Z,97
2023-03-10T10:55:45.000Z,96.8
2023-03-10T10:57:01.000Z,96.6
2023-03-10T10:58:17.000Z,96.5
2023-03-10T10:59:32.000Z,96.3
2023-03-10T11:00:49.074Z,96.1
2023-03-10T11:02:05.000Z,96.1
2023-03-10T11:03:21.000Z,96
2023-03-10T11:04:37.000Z,95.8
2023-03-10T11:05:53.000Z,95.8
2023-03-10T11:07:10.000Z,96
2023-03-10T11:08:26.237Z,96
2023-03-10T11:09:42.000Z,96
2023-03-10T11:10:58.000Z,96
2023-03-10T11:12:14.000Z,96
2023-03-10T11:13:31.000Z,96.1
2023-03-10T11:14:47.000Z,96.1
2023-03-10T11:16:02.000Z,96
2023-03-10T11:17:18.000Z,96
2023-03-10T11:18:34.000Z,95.8
2023-03-10T11:19:51.000Z,95.7
2023-03-10T11:21:07.000Z,95.8
2023-03-10T11:22:23.000Z,95.9
2023-03-10T11:23:39.000Z,96.1
2023-03-10T11:24:55.000Z,96.1
2023-03-10T11:26:12.000Z,96
2023-03-10T11:27:28.000Z,96
2023-03-10T11:28:44.365Z,96
2023-03-10T11:30:00.555Z,95.9
2023-03-10T11:31:16.000Z,95.8
2023-03-10T11:32:32.000Z,95.7
2023-03-10T11:33:48.000Z,95.7
2023-03-10T11:35:04.000Z,95.6
2023-03-10T11:36:20.000Z,95.6
2023-03-10T11:37:36.000Z,95.5
2023-03-10T11:38:52.925Z,95.6
2023-03-10T11:40:09.000Z,95.7
2023-03-10T11:41:25.000Z,95.9
2023-03-10T11:42:41.000Z,95.9
2023-03-10T11:43:57.000Z,95.9
2023-03-10T11:45:13.000Z,95.6
2023-03-10T11:46:30.000Z,95.3
2023-03-10T11:47:46.000Z,95.5
2023-03-10T11:49:01.000Z,95.3
2023-03-10T11:50:17.000Z,95.3
2023-03-10T11:51:33.000Z,95.2
2023-03-10T11:52:50.000Z,95
2023-03-10T11:54:06.000Z,94.9
2023-03-10T11:55:22.461Z,95
2023-03-10T11:56:38.000Z,95
2023-03-10T11:57:54.848Z,95.1
2023-03-10T11:59:11.000Z,95.2
2023-03-10T12:00:27.000Z,95.1
2023-03-10T12:01:43.000Z,94.9
2023-03-10T12:02:59.000Z,95.1
2023-03-10T12:04:15.000Z,95.2
2023-03-10T12:05:31.000Z,95.3
2023-03-10T12:06:47.226Z,95.7
2023-03-10T12:08:03.419Z,95.7
2023-03-10T12:09:19.000Z,96
2023-03-10T12:10:35.000Z,96.2
2023-03-10T12:11:52.000Z,96.4
2023-03-10T12:13:08.000Z,96.5
2023-03-10T12:14:24.000Z,96.6
2023-03-10T12:15:40.000Z,96.7
2023-03-10T12:16:56.784Z,97
2023-03-10T12:18:13.000Z,97.3
2023-03-10T12:19:29.000Z,97.4
2023-03-10T12:20:45.000Z,97.5
2023-03-10T12:22:00.000Z,97.3
2023-03-10T12:23:16.000Z,97.3
2023-03-10T12:24:33.000Z,97.2
2023-03-10T12:25:49.000Z,97.3
2023-03-10T12:27:05.000Z,97.4
2023-03-10T12:28:21.535Z,97.6
2023-03-10T12:29:37.734Z,97.6
2023-03-10T12:30:54.000Z,97.7
2023-03-10T12:32:10.000Z,97.5
2023-03-10T12:33:26.000Z,97.5
2023-03-10T12:34:42.498Z,97.7
2023-03-10T12:35:58.000Z,97.8
2023-03-10T12:37:14.000Z,97.7
2023-03-10T12:38:30.000Z,97.5
2023-03-10T12:39:46.000Z,97.6
2023-03-10T12:41:02.479Z,97.6
2023-03-10T12:42:18.000Z,97.4
2023-03-10T12:43:34.000Z,97
2023-03-10T12:44:51.000Z,96.8
2023-03-10T12:46:07.271Z,96.5
2023-03-10T12:47:23.000Z,96.3
2023-03-10T12:48:39.000Z,96
2023-03-10T12:49:55.000Z,96.1
2023-03-10T12:51:12.000Z,95.8
2023-03-10T12:52:28.000Z,95.5
2023-03-10T12:53:44.000Z,95.5
2023-03-10T12:54:59.000Z,95.5
2023-03-10T12:56:15.000Z,95.5
2023-03-10T12:57:32.016Z,95.6
2023-03-10T12:58:48.000Z,95.6
2023-03-10T13:00:04.000Z,96
2023-03-10T13:01:20.607Z,96.1
2023-03-10T13:02:36.000Z,96.2
2023-03-10T13:03:53.000Z,96.2
2023-03-10T13:05:09.000Z,96.2
2023-03-10T13:06:25.390Z,96.2
2023-03-10T13:07:41.590Z,96.2
2023-03-10T13:08:57.000Z,96.2
2023-03-10T13:10:14.000Z,96.3
2023-03-10T13:11:29.000Z,96.4
2023-03-10T13:12:45.000Z,96.5
2023-03-10T13:14:01.000Z,96.6
2023-03-10T13:15:17.000Z,96.7
2023-03-10T13:16:34.000Z,96.7
2023-03-10T13:17:50.000Z,96.8
2023-03-10T13:19:06.358Z,96.9
2023-03-10T13:20:22.000Z,97
2023-03-10T13:21:38.000Z,97
2023-03-10T13:22:55.000Z,97
2023-03-10T13:24:11.000Z,97.3
2023-03-10T13:25:27.000Z,97.3
2023-03-10T13:26:43.000Z,97.4
2023-03-10T13:27:58.000Z,97.6
2023-03-10T13:29:15.000Z,97.7
2023-03-10T13:30:31.000Z,97.7
2023-03-10T13:31:47.000Z,97.7
2023-03-10T13:33:03.516Z,97.8
2023-03-10T13:34:19.000Z,97.8
2023-03-10T13:35:36.000Z,97.9
2023-03-10T13:36:52.000Z,98
2023-03-10T13:38:08.000Z,98.1
2023-03-10T13:39:24.000Z,98
2023-03-10T13:40:40.000Z,97.9
2023-03-10T13:41:56.898Z,97.8
2023-03-10T13:43:13.000Z,97.8
2023-03-10T13:44:28.000Z,97.8
2023-03-10T13:45:44.000Z,97.9
2023-03-10T13:47:00.000Z,97.8
2023-03-10T13:48:16.000Z,97.7
2023-03-10T13:49:33.000Z,97.5
2023-03-10T13:50:49.000Z,97.4
2023-03-10T13:52:05.000Z,97.4
2023-03-10T13:53:21.000Z,97.3
2023-03-10T13:54:37.000Z,97.2
2023-03-10T13:55:54.000Z,97.3
2023-03-10T13:57:10.000Z,97.4
2023-03-10T13:58:26.526Z,97.2
2023-03-10T13:59:42.739Z,97.1
2023-03-10T14:00:57.000Z,97.1
2023-03-10T14:02:14.000Z,97.1
2023-03-10T14:03:30.000Z,97.1
2023-03-10T14:04:46.000Z,97.2
2023-03-10T14:06:02.000Z,97.2
2023-03-10T14:07:18.000Z,97
2023-03-10T14:08:35.000Z,97.2
2023-03-10T14:09:51.000Z,97.1
2023-03-10T14:11:07.000Z,97.2
2023-03-10T14:12:23.000Z,97.2
2023-03-10T14:13:39.000Z,97.3
2023-03-10T14:14:56.000Z,97.4
2023-03-10T14:16:12.000Z,97.6
2023-03-10T14:17:27.000Z,97.6
2023-03-10T14:18:43.000Z,97.6
2023-03-10T14:19:59.000Z,97.6
2023-03-10T14:21:16.000Z,97.6
2023-03-10T14:22:32.000Z,97.8
2023-03-10T14:23:48.000Z,97.9
2023-03-10T14:25:04.000Z,97.8
2023-03-10T14:26:20.000Z,97.9
2023-03-10T14:27:37.000Z,97.8
2023-03-10T14:28:53.000Z,97.8
2023-03-10T14:30:09.000Z,97.8
2023-03-10T14:31:25.000Z,97.8
2023-03-10T14:32:41.000Z,97.7
2023-03-10T14:33:57.000Z,97.9
2023-03-10T14:35:13.000Z,97.9
2023-03-10T14:36:29.460Z,97.9
2023-03-10T14:37:45.000Z,97.9
2023-03-10T14:39:01.000Z,97.9
2023-03-10T14:40:18.000Z,97.9
2023-03-10T14:41:34.000Z,97.9
2023-03-10T14:42:50.000Z,97.7
2023-03-10T14:44:06.000Z,97.7
2023-03-10T14:45:22.000Z,97.7
2023-03-10T14:46:39.000Z,97.7
2023-03-10T14:47:55.000Z,97.7
2023-03-10T14:49:11.000Z,97.7
2023-03-10T14:50:26.000Z,97.7
2023-03-10T14:51:42.809Z,97.9
2023-03-10T14:52:59.000Z,98.1
2023-03-10T14:54:15.000Z,98.4
2023-03-10T14:55:31.000Z,98.6
2023-03-10T14:56:47.597Z,98.8
2023-03-10T14:58:03.000Z,98.9
2023-03-10T14:59:20.000Z,99
2023-03-10T15:00:36.000Z,99.1
2023-03-10T15:01:52.000Z,99.1
2023-03-10T15:03:08.000Z,99.1
2023-03-10T15:04:24.000Z,99.1
2023-03-10T15:05:40.000Z,99.2
2023-03-10T15:06:56.000Z,99.1
2023-03-10T15:08:12.000Z,99.2
2023-03-10T15:09:28.000Z,99.1
2023-03-10T15:10:44.000Z,99.2
2023-03-10T15:12:00.000Z,99.3
2023-03-10T15:13:17.000Z,99.2
2023-03-10T15:14:32.393Z,99.2
2023-03-10T15:15:48.000Z,99.3
2023-03-10T15:17:04.000Z,99.2
2023-03-10T15:18:20.000Z,99.2
2023-03-10T15:19:37.000Z,99.2
2023-03-10T15:20:53.000Z,99.2
2023-03-10T15:22:09.000Z,99.1
2023-03-10T15:23:25.000Z,98.8
2023-03-10T15:24:41.944Z,98.5
2023-03-10T15:25:58.000Z,98.6
2023-03-10T15:27:14.000Z,98.5
2023-03-10T15:28:30.544Z,98.7
2023-03-10T15:29:46.000Z,98.8
2023-03-10T15:31:01.000Z,98.9
2023-03-10T15:32:18.000Z,98.9
2023-03-10T15:33:34.000Z,98.7
2023-03-10T15:34:50.000Z,98.6
2023-03-10T15:36:06.000Z,98.7
2023-03-10T15:37:22.000Z,98.9
2023-03-10T15:38:39.000Z,98.9
2023-03-10T15:39:55.000Z,99.2
2023-03-10T15:41:11.000Z,99.3
2023-03-10T15:42:27.000Z,99.5
2023-03-10T15:43:43.000Z,99.6
2023-03-10T15:45:00.000Z,99.7
2023-03-10T15:46:16.000Z,99.9
2023-03-10T15:47:31.000Z,100
2023-03-10T15:48:47.000Z,99.9
2023-03-10T15:50:03.895Z,99.8
2023-03-10T15:51:20.000Z,99.7
2023-03-10T15:52:36.000Z,99.5
2023-03-10T15:53:52.000Z,99.8
2023-03-10T15:55:08.000Z,100
2023-03-10T15:56:24.000Z,100
2023-03-10T15:57:41.000Z,99.8
2023-03-10T15:58:57.000Z,99.4
2023-03-10T16:00:13.000Z,99.3
2023-03-10T16:01:29.000Z,99.5
2023-03-10T16:02:45.000Z,99.7
2023-03-10T16:04:01.000Z,99.8
2023-03-10T16:05:17.257Z,100
2023-03-10T16:06:33.000Z,100
2023-03-10T16:07:49.000Z,99.8
2023-03-10T16:09:05.000Z,99.5
2023-03-10T16:10:22.000Z,99.4
2023-03-10T16:11:38.000Z,99.3
2023-03-10T16:12:54.000Z,99.5
2023-03-10T16:14:10.000Z,99.4
2023-03-10T16:15:26.000Z,99.2
2023-03-10T16:16:43.000Z,99
2023-03-10T16:17:59.000Z,99
2023-03-10T16:19:15.000Z,99
2023-03-10T16:20:30.000Z,99.1
2023-03-10T16:21:46.000Z,99.2
2023-03-10T16:23:03.000Z,99.2
2023-03-10T16:24:19.000Z,99.2
2023-03-10T16:25:35.000Z,99.2
2023-03-10T16:26:51.000Z,99.1
2023-03-10T16:28:07.000Z,99.1
2023-03-10T16:29:24.000Z,98.9
2023-03-10T16:30:40.000Z,98.7
2023-03-10T16:31:56.000Z,98.4
2023-03-10T16:33:12.000Z,98.4
2023-03-10T16:34:28.000Z,98.7
2023-03-10T16:35:44.000Z,98.8
2023-03-10T16:37:00.000Z,99
2023-03-10T16:38:16.000Z,98.8
2023-03-10T16:39:32.000Z,98.8
2023-03-10T16:40:48.000Z,98.8
2023-03-10T16:42:04.000Z,98.8
2023-03-10T16:43:21.160Z,98.7
2023-03-10T16:44:37.000Z,98.7
2023-03-10T16:45:53.000Z,98.3
2023-03-10T16:47:09.000Z,98.2
2023-03-10T16:48:25.000Z,97.9
2023-03-10T16:49:42.135Z,97.8
2023-03-10T16:50:58.000Z,97.7
2023-03-10T16:52:14.000Z,97.4
2023-03-10T16:53:29.000Z,97.1
2023-03-10T16:54:45.000Z,96.6
2023-03-10T16:56:02.000Z,96.5
2023-03-10T16:57:18.000Z,96.4
2023-03-10T16:58:34.000Z,96.6
2023-03-10T16:59:50.000Z,96.6
2023-03-10T17:01:06.000Z,96.3
2023-03-10T17:02:23.000Z,96
2023-03-10T17:03:39.000Z,95.6
2023-03-10T17:04:55.000Z,95
2023-03-10T17:06:11.000Z,95.3